AAL325 KPHL-KPIT
Flight info
| Callsign | AAL325 |
|---|---|
| Flight time | 0h 52m |
| Altitude | FL260 |
| Route | MXY PENSY J110 VINSE.DEMME5 |
| Aircraft | A319/M-VGDW/C |
Departure
| Time | 2026-05-08 11:35 |
|---|---|
| Airport | Philadelphia International Airport (KPHL) |
Arrival
| Time | 2026-05-08 12:28 |
|---|---|
| Airport | Pittsburgh International Airport (KPIT) |
| Time | Latitude | Longitude | Altitude | Speed | Heading |
|---|---|---|---|---|---|
| 2026-05-08 10:58 | 39.87389 | -75.24507 | 48 ft | 0 kts | 68° |
| 2026-05-08 11:23 | 39.87388 | -75.24508 | 48 ft | 1 kts | 68° |
| 2026-05-08 11:24 | 39.87384 | -75.24523 | 48 ft | 2 kts | 68° |
| 2026-05-08 11:24 | 39.87381 | -75.24546 | 48 ft | 3 kts | 97° |
| 2026-05-08 11:24 | 39.87389 | -75.24571 | 48 ft | 3 kts | 127° |
| 2026-05-08 11:24 | 39.87391 | -75.24574 | 48 ft | 0 kts | 129° |
| 2026-05-08 11:26 | 39.87390 | -75.24574 | 48 ft | 0 kts | 129° |
| 2026-05-08 11:27 | 39.87390 | -75.24573 | 48 ft | 0 kts | 129° |
| 2026-05-08 11:28 | 39.87390 | -75.24572 | 48 ft | 0 kts | 129° |
| 2026-05-08 11:28 | 39.87389 | -75.24572 | 48 ft | 0 kts | 129° |
| 2026-05-08 11:29 | 39.87388 | -75.24571 | 48 ft | 1 kts | 129° |
| 2026-05-08 11:29 | 39.87374 | -75.24556 | 48 ft | 4 kts | 153° |
| 2026-05-08 11:29 | 39.87334 | -75.24537 | 48 ft | 7 kts | 160° |
| 2026-05-08 11:30 | 39.87299 | -75.24496 | 48 ft | 8 kts | 102° |
| 2026-05-08 11:30 | 39.87308 | -75.24410 | 48 ft | 11 kts | 75° |
| 2026-05-08 11:30 | 39.87330 | -75.24302 | 48 ft | 13 kts | 75° |
| 2026-05-08 11:30 | 39.87346 | -75.24221 | 48 ft | 6 kts | 77° |
| 2026-05-08 11:31 | 39.87317 | -75.24169 | 48 ft | 10 kts | 154° |
| 2026-05-08 11:31 | 39.87242 | -75.24143 | 48 ft | 13 kts | 165° |
| 2026-05-08 11:31 | 39.87144 | -75.24110 | 48 ft | 15 kts | 165° |
| 2026-05-08 11:31 | 39.87042 | -75.24075 | 48 ft | 16 kts | 165° |
| 2026-05-08 11:32 | 39.86958 | -75.24047 | 48 ft | 7 kts | 165° |
| 2026-05-08 11:32 | 39.86920 | -75.24031 | 48 ft | 5 kts | 147° |
| 2026-05-08 11:32 | 39.86914 | -75.23972 | 48 ft | 9 kts | 81° |
| 2026-05-08 11:32 | 39.86931 | -75.23880 | 48 ft | 12 kts | 76° |
| 2026-05-08 11:33 | 39.86954 | -75.23765 | 48 ft | 13 kts | 75° |
| 2026-05-08 11:33 | 39.86977 | -75.23649 | 48 ft | 13 kts | 75° |
| 2026-05-08 11:33 | 39.86997 | -75.23552 | 48 ft | 9 kts | 74° |
| 2026-05-08 11:33 | 39.87003 | -75.23460 | 48 ft | 11 kts | 120° |
| 2026-05-08 11:34 | 39.86940 | -75.23411 | 48 ft | 9 kts | 168° |
| 2026-05-08 11:34 | 39.86898 | -75.23447 | 48 ft | 8 kts | 246° |
| 2026-05-08 11:34 | 39.86879 | -75.23529 | 48 ft | 11 kts | 255° |
| 2026-05-08 11:34 | 39.86849 | -75.23670 | 48 ft | 30 kts | 255° |
| 2026-05-08 11:35 | 39.86727 | -75.24281 | 48 ft | 109 kts | 255° |
| 2026-05-08 11:35 | 39.86480 | -75.25522 | 78 ft | 169 kts | 255° |
| 2026-05-08 11:35 | 39.86191 | -75.27032 | 907 ft | 171 kts | 258° |
| 2026-05-08 11:35 | 39.85757 | -75.28594 | 1411 ft | 198 kts | 244° |
| 2026-05-08 11:36 | 39.84927 | -75.29994 | 1813 ft | 195 kts | 234° |
| 2026-05-08 11:36 | 39.84020 | -75.31327 | 2215 ft | 202 kts | 233° |
| 2026-05-08 11:36 | 39.83034 | -75.32743 | 2673 ft | 223 kts | 232° |
| 2026-05-08 11:36 | 39.82046 | -75.34402 | 3113 ft | 238 kts | 245° |
| 2026-05-08 11:37 | 39.81738 | -75.36451 | 3574 ft | 231 kts | 274° |
| 2026-05-08 11:37 | 39.81985 | -75.38512 | 4071 ft | 231 kts | 285° |
| 2026-05-08 11:37 | 39.82388 | -75.40499 | 4692 ft | 230 kts | 288° |
| 2026-05-08 11:37 | 39.82867 | -75.42523 | 5329 ft | 234 kts | 291° |
| 2026-05-08 11:38 | 39.83404 | -75.44523 | 5991 ft | 236 kts | 292° |
| 2026-05-08 11:38 | 39.83962 | -75.46530 | 6666 ft | 236 kts | 292° |
| 2026-05-08 11:38 | 39.84525 | -75.48535 | 7341 ft | 236 kts | 292° |
| 2026-05-08 11:38 | 39.85095 | -75.50560 | 8021 ft | 242 kts | 292° |
| 2026-05-08 11:39 | 39.85678 | -75.52627 | 8698 ft | 246 kts | 292° |
| 2026-05-08 11:39 | 39.86268 | -75.54731 | 9376 ft | 250 kts | 292° |
| 2026-05-08 11:39 | 39.86868 | -75.56859 | 10054 ft | 252 kts | 292° |
| 2026-05-08 11:39 | 39.87480 | -75.58999 | 10731 ft | 254 kts | 292° |
| 2026-05-08 11:40 | 39.88115 | -75.61175 | 11209 ft | 262 kts | 292° |
| 2026-05-08 11:40 | 39.88780 | -75.63439 | 11597 ft | 273 kts | 291° |
| 2026-05-08 11:40 | 39.89171 | -75.65901 | 11980 ft | 285 kts | 279° |
| 2026-05-08 11:40 | 39.89265 | -75.68508 | 12367 ft | 294 kts | 274° |
| 2026-05-08 11:41 | 39.89261 | -75.71207 | 12748 ft | 301 kts | 273° |
| 2026-05-08 11:41 | 39.89285 | -75.73943 | 13239 ft | 303 kts | 274° |
| 2026-05-08 11:41 | 39.89338 | -75.76665 | 13859 ft | 301 kts | 274° |
| 2026-05-08 11:41 | 39.89408 | -75.79368 | 14476 ft | 298 kts | 274° |
| 2026-05-08 11:42 | 39.89488 | -75.82051 | 15031 ft | 296 kts | 274° |
| 2026-05-08 11:42 | 39.89575 | -75.84738 | 15585 ft | 302 kts | 274° |
| 2026-05-08 11:42 | 39.89671 | -75.87534 | 16082 ft | 316 kts | 274° |
| 2026-05-08 11:42 | 39.89773 | -75.90437 | 16562 ft | 327 kts | 274° |
| 2026-05-08 11:43 | 39.89878 | -75.93407 | 17082 ft | 330 kts | 274° |
| 2026-05-08 11:43 | 39.89981 | -75.96371 | 17651 ft | 327 kts | 274° |
| 2026-05-08 11:43 | 39.90082 | -75.99307 | 18207 ft | 324 kts | 273° |
| 2026-05-08 11:43 | 39.90182 | -76.02232 | 18714 ft | 323 kts | 273° |
| 2026-05-08 11:44 | 39.90282 | -76.05137 | 19214 ft | 323 kts | 273° |
| 2026-05-08 11:44 | 39.90381 | -76.08062 | 19715 ft | 324 kts | 273° |
| 2026-05-08 11:44 | 39.90480 | -76.10996 | 20216 ft | 325 kts | 273° |
| 2026-05-08 11:44 | 39.90582 | -76.13934 | 20661 ft | 327 kts | 273° |
| 2026-05-08 11:45 | 39.90695 | -76.16907 | 21047 ft | 331 kts | 273° |
| 2026-05-08 11:45 | 39.90814 | -76.19902 | 21424 ft | 334 kts | 274° |
| 2026-05-08 11:45 | 39.90939 | -76.22932 | 21801 ft | 337 kts | 274° |
| 2026-05-08 11:45 | 39.91066 | -76.25982 | 22177 ft | 340 kts | 274° |
| 2026-05-08 11:46 | 39.91195 | -76.29054 | 22552 ft | 342 kts | 274° |
| 2026-05-08 11:46 | 39.91325 | -76.32142 | 22921 ft | 342 kts | 273° |
| 2026-05-08 11:46 | 39.91455 | -76.35236 | 23275 ft | 343 kts | 273° |
| 2026-05-08 11:46 | 39.91584 | -76.38338 | 23626 ft | 344 kts | 273° |
| 2026-05-08 11:47 | 39.91713 | -76.41440 | 23976 ft | 344 kts | 273° |
| 2026-05-08 11:47 | 39.91842 | -76.44549 | 24326 ft | 345 kts | 273° |
| 2026-05-08 11:47 | 39.91970 | -76.47668 | 24676 ft | 346 kts | 273° |
| 2026-05-08 11:47 | 39.92097 | -76.50788 | 25026 ft | 347 kts | 273° |
| 2026-05-08 11:48 | 39.92224 | -76.53928 | 25376 ft | 348 kts | 273° |
| 2026-05-08 11:48 | 39.92351 | -76.57074 | 25635 ft | 350 kts | 273° |
| 2026-05-08 11:48 | 39.92477 | -76.60244 | 25820 ft | 351 kts | 273° |
| 2026-05-08 11:48 | 39.92603 | -76.63416 | 25949 ft | 352 kts | 273° |
| 2026-05-08 11:49 | 39.92729 | -76.66608 | 26012 ft | 353 kts | 273° |
| 2026-05-08 11:49 | 39.92855 | -76.69796 | 26021 ft | 354 kts | 273° |
| 2026-05-08 11:49 | 39.92981 | -76.72991 | 26020 ft | 354 kts | 273° |
| 2026-05-08 11:49 | 39.93106 | -76.76193 | 26019 ft | 354 kts | 273° |
| 2026-05-08 11:50 | 39.93230 | -76.79385 | 26019 ft | 354 kts | 273° |
| 2026-05-08 11:50 | 39.93354 | -76.82586 | 26019 ft | 354 kts | 273° |
| 2026-05-08 11:50 | 39.93476 | -76.85774 | 26019 ft | 354 kts | 273° |
| 2026-05-08 11:50 | 39.93597 | -76.88967 | 26019 ft | 354 kts | 273° |
| 2026-05-08 11:51 | 39.93718 | -76.92165 | 26019 ft | 354 kts | 273° |
| 2026-05-08 11:51 | 39.93837 | -76.95366 | 26019 ft | 354 kts | 273° |
| 2026-05-08 11:51 | 39.93956 | -76.98561 | 26020 ft | 354 kts | 273° |
| 2026-05-08 11:51 | 39.94073 | -77.01755 | 26019 ft | 354 kts | 273° |
| 2026-05-08 11:52 | 39.94190 | -77.04945 | 26019 ft | 354 kts | 273° |
| 2026-05-08 11:52 | 39.94306 | -77.08144 | 26018 ft | 354 kts | 273° |
| 2026-05-08 11:52 | 39.94421 | -77.11343 | 26018 ft | 354 kts | 273° |
| 2026-05-08 11:52 | 39.94535 | -77.14540 | 26017 ft | 354 kts | 273° |
| 2026-05-08 11:53 | 39.94648 | -77.17734 | 26017 ft | 354 kts | 273° |
| 2026-05-08 11:53 | 39.94760 | -77.20926 | 26016 ft | 354 kts | 273° |
| 2026-05-08 11:53 | 39.94871 | -77.24122 | 26016 ft | 354 kts | 273° |
| 2026-05-08 11:53 | 39.94981 | -77.27321 | 26016 ft | 354 kts | 273° |
| 2026-05-08 11:54 | 39.95090 | -77.30507 | 26015 ft | 354 kts | 273° |
| 2026-05-08 11:54 | 39.95199 | -77.33707 | 26015 ft | 354 kts | 273° |
| 2026-05-08 11:54 | 39.95307 | -77.36905 | 26014 ft | 354 kts | 273° |
| 2026-05-08 11:54 | 39.95413 | -77.40107 | 25998 ft | 354 kts | 273° |
| 2026-05-08 11:55 | 39.95519 | -77.43306 | 25897 ft | 353 kts | 273° |
| 2026-05-08 11:55 | 39.95624 | -77.46489 | 25675 ft | 351 kts | 273° |
| 2026-05-08 11:55 | 39.95726 | -77.49639 | 25430 ft | 347 kts | 273° |
| 2026-05-08 11:55 | 39.95826 | -77.52752 | 25167 ft | 343 kts | 273° |
| 2026-05-08 11:56 | 39.95925 | -77.55841 | 24875 ft | 340 kts | 273° |
| 2026-05-08 11:56 | 39.96021 | -77.58895 | 24568 ft | 338 kts | 274° |
| 2026-05-08 11:56 | 39.96117 | -77.61945 | 24210 ft | 336 kts | 274° |
| 2026-05-08 11:56 | 39.96211 | -77.64967 | 23840 ft | 334 kts | 273° |
| 2026-05-08 11:57 | 39.96304 | -77.67986 | 23465 ft | 333 kts | 273° |
| 2026-05-08 11:57 | 39.96396 | -77.70986 | 23090 ft | 331 kts | 274° |
| 2026-05-08 11:57 | 39.96486 | -77.73965 | 22734 ft | 329 kts | 274° |
| 2026-05-08 11:57 | 39.96575 | -77.76929 | 22471 ft | 326 kts | 274° |
| 2026-05-08 11:58 | 39.96662 | -77.79863 | 22280 ft | 323 kts | 274° |
| 2026-05-08 11:58 | 39.96749 | -77.82780 | 22137 ft | 322 kts | 274° |
| 2026-05-08 11:58 | 39.96834 | -77.85686 | 22042 ft | 322 kts | 273° |
| 2026-05-08 11:59 | 39.97003 | -77.91516 | 22021 ft | 324 kts | 273° |
| 2026-05-08 11:59 | 39.97087 | -77.94449 | 22021 ft | 325 kts | 273° |
| 2026-05-08 11:59 | 39.97171 | -77.97384 | 22021 ft | 325 kts | 273° |
| 2026-05-08 11:59 | 39.97254 | -78.00325 | 22021 ft | 326 kts | 273° |
| 2026-05-08 12:00 | 39.97337 | -78.03276 | 22024 ft | 326 kts | 273° |
| 2026-05-08 12:00 | 39.97418 | -78.06222 | 22025 ft | 326 kts | 273° |
| 2026-05-08 12:00 | 39.97499 | -78.09175 | 22025 ft | 327 kts | 273° |
| 2026-05-08 12:00 | 39.97579 | -78.12131 | 22025 ft | 327 kts | 273° |
| 2026-05-08 12:01 | 39.97659 | -78.15086 | 22025 ft | 327 kts | 273° |
| 2026-05-08 12:01 | 39.97737 | -78.18038 | 22025 ft | 327 kts | 273° |
| 2026-05-08 12:01 | 39.97815 | -78.20990 | 22032 ft | 327 kts | 273° |
| 2026-05-08 12:01 | 39.97892 | -78.23944 | 22036 ft | 326 kts | 273° |
| 2026-05-08 12:02 | 39.97968 | -78.26898 | 22036 ft | 326 kts | 273° |
| 2026-05-08 12:02 | 39.98043 | -78.29840 | 22036 ft | 326 kts | 273° |
| 2026-05-08 12:02 | 39.98118 | -78.32787 | 22035 ft | 326 kts | 273° |
| 2026-05-08 12:02 | 39.98191 | -78.35736 | 22031 ft | 326 kts | 273° |
| 2026-05-08 12:03 | 39.98264 | -78.38686 | 22030 ft | 326 kts | 273° |
| 2026-05-08 12:03 | 39.98337 | -78.41635 | 22030 ft | 326 kts | 273° |
| 2026-05-08 12:03 | 39.98408 | -78.44578 | 22030 ft | 326 kts | 273° |
| 2026-05-08 12:03 | 39.98479 | -78.47525 | 22030 ft | 326 kts | 273° |
| 2026-05-08 12:04 | 39.98550 | -78.50480 | 22030 ft | 326 kts | 273° |
| 2026-05-08 12:04 | 39.98619 | -78.53422 | 22030 ft | 326 kts | 273° |
| 2026-05-08 12:04 | 39.98687 | -78.56378 | 22030 ft | 326 kts | 273° |
| 2026-05-08 12:04 | 39.98755 | -78.59333 | 22030 ft | 327 kts | 273° |
| 2026-05-08 12:05 | 39.98822 | -78.62284 | 22022 ft | 327 kts | 273° |
| 2026-05-08 12:05 | 39.98889 | -78.65249 | 21969 ft | 328 kts | 273° |
| 2026-05-08 12:05 | 39.98955 | -78.68201 | 21781 ft | 326 kts | 273° |
| 2026-05-08 12:05 | 39.99019 | -78.71136 | 21539 ft | 321 kts | 273° |
| 2026-05-08 12:06 | 39.99042 | -78.72209 | 21446 ft | 319 kts | 272° |
| 2026-05-08 12:06 | 39.99096 | -78.75069 | 21195 ft | 313 kts | 272° |
| 2026-05-08 12:06 | 39.99143 | -78.77874 | 20945 ft | 308 kts | 272° |
| 2026-05-08 12:06 | 39.99188 | -78.80656 | 20631 ft | 306 kts | 272° |
| 2026-05-08 12:07 | 39.99233 | -78.83412 | 20264 ft | 304 kts | 272° |
| 2026-05-08 12:07 | 39.99276 | -78.86152 | 19889 ft | 301 kts | 272° |
| 2026-05-08 12:07 | 39.99316 | -78.88861 | 19513 ft | 297 kts | 272° |
| 2026-05-08 12:07 | 39.99356 | -78.91534 | 19138 ft | 294 kts | 272° |
| 2026-05-08 12:08 | 39.99397 | -78.94175 | 18764 ft | 291 kts | 272° |
| 2026-05-08 12:08 | 39.99439 | -78.96803 | 18388 ft | 289 kts | 272° |
| 2026-05-08 12:08 | 39.99483 | -78.99414 | 18013 ft | 288 kts | 272° |
| 2026-05-08 12:08 | 39.99527 | -79.02016 | 17639 ft | 287 kts | 272° |
| 2026-05-08 12:09 | 39.99569 | -79.04614 | 17264 ft | 287 kts | 272° |
| 2026-05-08 12:09 | 39.99608 | -79.07206 | 16889 ft | 286 kts | 272° |
| 2026-05-08 12:09 | 39.99647 | -79.09785 | 16514 ft | 284 kts | 272° |
| 2026-05-08 12:09 | 39.99684 | -79.12329 | 16140 ft | 281 kts | 272° |
| 2026-05-08 12:10 | 39.99718 | -79.14855 | 15765 ft | 278 kts | 272° |
| 2026-05-08 12:10 | 39.99752 | -79.17359 | 15389 ft | 275 kts | 272° |
| 2026-05-08 12:10 | 39.99783 | -79.19841 | 15014 ft | 273 kts | 272° |
| 2026-05-08 12:10 | 39.99814 | -79.22306 | 14640 ft | 272 kts | 273° |
| 2026-05-08 12:11 | 39.99843 | -79.24763 | 14264 ft | 271 kts | 273° |
| 2026-05-08 12:11 | 39.99872 | -79.27206 | 13890 ft | 270 kts | 273° |
| 2026-05-08 12:11 | 39.99899 | -79.29646 | 13515 ft | 269 kts | 273° |
| 2026-05-08 12:11 | 39.99925 | -79.32073 | 13184 ft | 267 kts | 273° |
| 2026-05-08 12:12 | 39.99948 | -79.34482 | 12884 ft | 266 kts | 273° |
| 2026-05-08 12:12 | 39.99971 | -79.36885 | 12584 ft | 266 kts | 273° |
| 2026-05-08 12:12 | 39.99994 | -79.39286 | 12285 ft | 266 kts | 274° |
| 2026-05-08 12:12 | 40.00386 | -79.41613 | 11970 ft | 265 kts | 292° |
| 2026-05-08 12:13 | 40.01361 | -79.43640 | 11695 ft | 265 kts | 304° |
| 2026-05-08 12:13 | 40.02541 | -79.45473 | 11398 ft | 263 kts | 308° |
| 2026-05-08 12:13 | 40.03771 | -79.47218 | 11098 ft | 260 kts | 309° |
| 2026-05-08 12:13 | 40.04997 | -79.48932 | 10797 ft | 257 kts | 309° |
| 2026-05-08 12:14 | 40.06195 | -79.50633 | 10539 ft | 252 kts | 309° |
| 2026-05-08 12:14 | 40.07346 | -79.52303 | 10384 ft | 244 kts | 308° |
| 2026-05-08 12:14 | 40.08452 | -79.53941 | 10241 ft | 237 kts | 307° |
| 2026-05-08 12:14 | 40.09513 | -79.55539 | 10139 ft | 232 kts | 307° |
| 2026-05-08 12:15 | 40.10558 | -79.57136 | 10061 ft | 232 kts | 308° |
| 2026-05-08 12:15 | 40.11603 | -79.58749 | 10039 ft | 233 kts | 307° |
| 2026-05-08 12:15 | 40.12641 | -79.60382 | 10034 ft | 234 kts | 307° |
| 2026-05-08 12:15 | 40.13674 | -79.62026 | 10032 ft | 235 kts | 307° |
| 2026-05-08 12:16 | 40.14707 | -79.63687 | 10033 ft | 236 kts | 307° |
| 2026-05-08 12:16 | 40.15736 | -79.65349 | 10033 ft | 236 kts | 306° |
| 2026-05-08 12:16 | 40.16769 | -79.67021 | 10033 ft | 236 kts | 306° |
| 2026-05-08 12:16 | 40.17794 | -79.68685 | 10032 ft | 235 kts | 306° |
| 2026-05-08 12:17 | 40.18747 | -79.70401 | 9847 ft | 236 kts | 302° |
| 2026-05-08 12:17 | 40.19597 | -79.72259 | 9448 ft | 239 kts | 298° |
| 2026-05-08 12:17 | 40.20362 | -79.74187 | 9052 ft | 239 kts | 295° |
| 2026-05-08 12:17 | 40.21061 | -79.76110 | 8653 ft | 231 kts | 294° |
| 2026-05-08 12:18 | 40.21713 | -79.78002 | 8252 ft | 225 kts | 293° |
| 2026-05-08 12:18 | 40.22337 | -79.79848 | 7853 ft | 220 kts | 292° |
| 2026-05-08 12:18 | 40.22948 | -79.81661 | 7453 ft | 216 kts | 292° |
| 2026-05-08 12:18 | 40.23550 | -79.83443 | 7052 ft | 212 kts | 292° |
| 2026-05-08 12:19 | 40.24140 | -79.85192 | 6653 ft | 209 kts | 292° |
| 2026-05-08 12:19 | 40.24722 | -79.86916 | 6299 ft | 204 kts | 292° |
| 2026-05-08 12:19 | 40.25277 | -79.88555 | 6171 ft | 191 kts | 291° |
| 2026-05-08 12:19 | 40.25805 | -79.90083 | 6053 ft | 179 kts | 292° |
| 2026-05-08 12:20 | 40.26324 | -79.91489 | 6013 ft | 165 kts | 293° |
| 2026-05-08 12:20 | 40.26806 | -79.92765 | 6012 ft | 148 kts | 293° |
| 2026-05-08 12:20 | 40.27299 | -79.93902 | 6003 ft | 145 kts | 299° |
| 2026-05-08 12:20 | 40.27976 | -79.94916 | 6021 ft | 151 kts | 307° |
| 2026-05-08 12:21 | 40.28718 | -79.95917 | 6017 ft | 155 kts | 308° |
| 2026-05-08 12:21 | 40.29480 | -79.96925 | 6014 ft | 157 kts | 309° |
| 2026-05-08 12:21 | 40.30263 | -79.97941 | 5873 ft | 160 kts | 309° |
| 2026-05-08 12:21 | 40.31054 | -79.98956 | 5657 ft | 158 kts | 309° |
| 2026-05-08 12:22 | 40.31834 | -79.99945 | 5459 ft | 155 kts | 310° |
| 2026-05-08 12:22 | 40.32603 | -80.00916 | 5270 ft | 153 kts | 310° |
| 2026-05-08 12:22 | 40.33365 | -80.01879 | 5087 ft | 152 kts | 310° |
| 2026-05-08 12:22 | 40.34126 | -80.02842 | 4905 ft | 153 kts | 310° |
| 2026-05-08 12:23 | 40.34887 | -80.03808 | 4721 ft | 153 kts | 310° |
| 2026-05-08 12:23 | 40.35655 | -80.04783 | 4530 ft | 154 kts | 310° |
| 2026-05-08 12:23 | 40.36426 | -80.05763 | 4333 ft | 155 kts | 310° |
| 2026-05-08 12:23 | 40.37201 | -80.06749 | 4131 ft | 156 kts | 310° |
| 2026-05-08 12:24 | 40.37981 | -80.07743 | 3925 ft | 157 kts | 310° |
| 2026-05-08 12:24 | 40.38767 | -80.08740 | 3717 ft | 158 kts | 310° |
| 2026-05-08 12:24 | 40.39556 | -80.09742 | 3507 ft | 158 kts | 310° |
| 2026-05-08 12:24 | 40.40326 | -80.10713 | 3294 ft | 149 kts | 310° |
| 2026-05-08 12:25 | 40.41059 | -80.11634 | 3079 ft | 146 kts | 310° |
| 2026-05-08 12:25 | 40.41785 | -80.12555 | 2904 ft | 145 kts | 310° |
| 2026-05-08 12:25 | 40.42507 | -80.13471 | 2765 ft | 146 kts | 310° |
| 2026-05-08 12:25 | 40.43238 | -80.14411 | 2559 ft | 148 kts | 310° |
| 2026-05-08 12:26 | 40.43962 | -80.15371 | 2345 ft | 148 kts | 311° |
| 2026-05-08 12:26 | 40.44689 | -80.16323 | 2140 ft | 147 kts | 313° |
| 2026-05-08 12:26 | 40.45429 | -80.17243 | 1940 ft | 147 kts | 314° |
| 2026-05-08 12:26 | 40.46161 | -80.18173 | 1744 ft | 146 kts | 314° |
| 2026-05-08 12:27 | 40.46888 | -80.19089 | 1548 ft | 146 kts | 315° |
| 2026-05-08 12:27 | 40.47619 | -80.20020 | 1356 ft | 145 kts | 316° |
| 2026-05-08 12:27 | 40.48345 | -80.20924 | 1216 ft | 138 kts | 316° |
| 2026-05-08 12:27 | 40.48964 | -80.21692 | 1216 ft | 107 kts | 316° |
| 2026-05-08 12:28 | 40.49420 | -80.22263 | 1216 ft | 63 kts | 316° |
| 2026-05-08 12:28 | 40.49614 | -80.22493 | 1216 ft | 29 kts | 327° |
| 2026-05-08 12:28 | 40.49782 | -80.22640 | 1216 ft | 28 kts | 308° |
| 2026-05-08 12:28 | 40.49881 | -80.22861 | 1216 ft | 29 kts | 298° |
| 2026-05-08 12:29 | 40.49974 | -80.23086 | 1216 ft | 23 kts | 298° |
| 2026-05-08 12:29 | 40.50039 | -80.23253 | 1216 ft | 21 kts | 288° |
| 2026-05-08 12:29 | 40.50051 | -80.23446 | 1216 ft | 22 kts | 272° |
| 2026-05-08 12:29 | 40.50055 | -80.23658 | 1216 ft | 24 kts | 271° |
| 2026-05-08 12:30 | 40.50060 | -80.23877 | 1216 ft | 21 kts | 272° |
| 2026-05-08 12:30 | 40.50063 | -80.23999 | 1216 ft | 10 kts | 266° |
| 2026-05-08 12:30 | 40.50014 | -80.24062 | 1216 ft | 11 kts | 184° |
| 2026-05-08 12:30 | 40.49927 | -80.24066 | 1216 ft | 14 kts | 181° |
| 2026-05-08 12:31 | 40.49817 | -80.24070 | 1216 ft | 17 kts | 182° |
| 2026-05-08 12:31 | 40.49689 | -80.24075 | 1216 ft | 19 kts | 182° |
| 2026-05-08 12:31 | 40.49552 | -80.24082 | 1216 ft | 20 kts | 182° |
| 2026-05-08 12:31 | 40.49410 | -80.24089 | 1216 ft | 21 kts | 182° |
| 2026-05-08 12:32 | 40.49291 | -80.24094 | 1216 ft | 9 kts | 182° |
| 2026-05-08 12:32 | 40.49236 | -80.24124 | 1216 ft | 8 kts | 243° |
| 2026-05-08 12:32 | 40.49228 | -80.24212 | 1216 ft | 11 kts | 268° |
| 2026-05-08 12:32 | 40.49233 | -80.24330 | 1216 ft | 14 kts | 274° |
| 2026-05-08 12:33 | 40.49237 | -80.24435 | 1216 ft | 11 kts | 272° |
| 2026-05-08 12:33 | 40.49250 | -80.24527 | 1216 ft | 11 kts | 298° |
| 2026-05-08 12:33 | 40.49311 | -80.24609 | 1216 ft | 14 kts | 317° |
| 2026-05-08 12:33 | 40.49371 | -80.24681 | 1216 ft | 7 kts | 317° |
| 2026-05-08 12:34 | 40.49406 | -80.24724 | 1216 ft | 5 kts | 319° |
| 2026-05-08 12:34 | 40.49437 | -80.24748 | 1216 ft | 3 kts | 339° |
| 2026-05-08 12:34 | 40.49444 | -80.24751 | 1216 ft | 2 kts | 340° |
| 2026-05-08 12:34 | 40.49461 | -80.24754 | 1216 ft | 3 kts | 15° |
| 2026-05-08 12:35 | 40.49480 | -80.24724 | 1216 ft | 5 kts | 52° |
| 2026-05-08 12:35 | 40.49495 | -80.24701 | 1216 ft | 1 kts | 47° |
| 2026-05-08 12:35 | 40.49497 | -80.24699 | 1216 ft | 0 kts | 47° |